createdAt,value
2019-05-26T00:01:01.754Z,17.60
2019-05-26T00:03:30.440Z,16.84
2019-05-26T00:05:59.108Z,16.21
2019-05-26T00:08:27.720Z,16.47
2019-05-26T00:10:56.339Z,16.47
2019-05-26T00:13:25.017Z,16.84
2019-05-26T00:15:53.697Z,16.58
2019-05-26T00:18:22.381Z,17.06
2019-05-26T00:20:51.111Z,17.31
2019-05-26T00:23:19.810Z,16.91
2019-05-26T00:25:48.420Z,17.01
2019-05-26T00:28:17.070Z,17.09
2019-05-26T00:30:45.774Z,17.30
2019-05-26T00:33:14.390Z,17.35
2019-05-26T00:35:43.132Z,17.14
2019-05-26T00:38:11.747Z,17.44
2019-05-26T00:40:40.444Z,17.37
2019-05-26T00:43:09.104Z,17.33
2019-05-26T00:45:38.003Z,17.32
2019-05-26T00:48:06.723Z,17.51
2019-05-26T00:50:35.544Z,16.80
2019-05-26T00:53:04.240Z,17.13
2019-05-26T00:55:32.922Z,17.49
2019-05-26T00:58:01.669Z,17.51
2019-05-26T01:00:43.330Z,17.38
2019-05-26T01:03:12.754Z,17.36
2019-05-26T01:05:41.631Z,17.08
2019-05-26T01:08:10.513Z,16.80
2019-05-26T01:10:39.173Z,16.78
2019-05-26T01:13:08.036Z,17.06
2019-05-26T01:15:36.724Z,17.04
2019-05-26T01:18:06.634Z,16.99
2019-05-26T01:20:35.318Z,16.02
2019-05-26T01:23:04.244Z,16.36
2019-05-26T01:25:32.897Z,16.39
2019-05-26T01:28:01.519Z,16.58
2019-05-26T01:30:35.469Z,16.75
2019-05-26T01:33:04.674Z,16.87
2019-05-26T01:35:35.155Z,16.84
2019-05-26T01:38:03.980Z,16.39
2019-05-26T01:40:35.536Z,16.52
2019-05-26T01:43:04.344Z,16.74
2019-05-26T01:45:33.030Z,16.49
2019-05-26T01:48:01.778Z,16.52
2019-05-26T01:50:30.394Z,16.40
2019-05-26T01:52:59.088Z,15.84
2019-05-26T01:55:27.817Z,16.39
2019-05-26T01:57:56.442Z,15.99
2019-05-26T02:00:25.057Z,16.07
2019-05-26T02:02:53.871Z,16.12
2019-05-26T02:05:22.492Z,16.28
2019-05-26T02:07:51.183Z,16.04
2019-05-26T02:10:20.108Z,16.47
2019-05-26T02:12:48.751Z,15.91
2019-05-26T02:15:18.343Z,16.09
2019-05-26T02:17:47.059Z,16.09
2019-05-26T02:20:15.954Z,16.08
2019-05-26T02:22:44.635Z,16.01
2019-05-26T02:25:14.683Z,15.67
2019-05-26T02:27:43.304Z,15.42
2019-05-26T02:30:12.332Z,15.47
2019-05-26T02:32:40.996Z,15.70
2019-05-26T02:35:10.487Z,15.93
2019-05-26T02:37:39.099Z,15.53
2019-05-26T02:40:10.138Z,15.42
2019-05-26T02:42:39.227Z,15.58
2019-05-26T02:45:10.481Z,15.46
2019-05-26T02:47:39.206Z,15.73
2019-05-26T02:50:08.546Z,15.83
2019-05-26T02:52:37.165Z,15.72
2019-05-26T02:55:09.705Z,15.76
2019-05-26T02:57:38.323Z,15.80
2019-05-26T03:00:10.964Z,15.46
2019-05-26T03:02:40.123Z,15.70
2019-05-26T03:05:12.109Z,15.52
2019-05-26T03:07:43.855Z,15.08
2019-05-26T03:10:15.320Z,15.02
2019-05-26T03:12:44.406Z,15.05
2019-05-26T03:15:14.186Z,15.57
2019-05-26T03:17:42.904Z,15.31
2019-05-26T03:20:14.395Z,15.46
2019-05-26T03:22:43.200Z,14.59
2019-05-26T03:25:13.552Z,14.69
2019-05-26T03:27:42.163Z,14.55
2019-05-26T03:30:11.228Z,14.59
2019-05-26T03:32:39.971Z,14.61
2019-05-26T03:35:10.402Z,15.15
2019-05-26T03:37:39.104Z,15.62
2019-05-26T03:40:08.817Z,15.83
2019-05-26T03:42:37.446Z,15.76
2019-05-26T03:45:07.808Z,15.66
2019-05-26T03:47:36.542Z,15.63
2019-05-26T03:50:09.979Z,16.04
2019-05-26T03:52:38.682Z,16.38
2019-05-26T03:55:07.860Z,16.34
2019-05-26T03:57:36.568Z,16.37
2019-05-26T04:00:08.316Z,16.63
2019-05-26T04:02:37.052Z,16.52
2019-05-26T04:05:07.190Z,16.63
2019-05-26T04:07:35.879Z,16.49
2019-05-26T04:10:08.157Z,16.45
2019-05-26T04:12:36.849Z,16.85
2019-05-26T04:15:07.322Z,16.88
2019-05-26T04:17:36.045Z,16.94
2019-05-26T04:20:06.127Z,16.87
2019-05-26T04:22:34.818Z,16.25
2019-05-26T04:25:04.543Z,16.80
2019-05-26T04:27:33.155Z,16.87
2019-05-26T04:30:01.889Z,16.45
2019-05-26T04:32:30.586Z,16.51
2019-05-26T04:34:59.289Z,16.25
2019-05-26T04:37:27.979Z,16.15
2019-05-26T04:39:56.697Z,16.61
2019-05-26T04:42:25.384Z,16.26
2019-05-26T04:44:54.085Z,16.06
2019-05-26T04:47:22.805Z,16.26
2019-05-26T04:49:51.414Z,16.47
2019-05-26T04:52:20.878Z,15.94
2019-05-26T04:54:49.616Z,15.97
2019-05-26T04:57:18.291Z,16.68
2019-05-26T04:59:46.909Z,16.63
2019-05-26T05:02:15.564Z,15.96
2019-05-26T05:04:44.187Z,15.27
2019-05-26T05:07:12.885Z,15.28
2019-05-26T05:09:41.613Z,15.79
2019-05-26T05:12:10.314Z,16.24
2019-05-26T05:14:38.944Z,16.26
2019-05-26T05:17:07.679Z,15.96
2019-05-26T05:19:36.289Z,16.17
2019-05-26T05:22:05.010Z,16.10
2019-05-26T05:24:33.745Z,16.82
2019-05-26T05:27:02.374Z,17.27
2019-05-26T05:29:31.063Z,17.35
2019-05-26T05:31:59.776Z,17.03
2019-05-26T05:34:28.399Z,16.48
2019-05-26T05:36:57.029Z,16.24
2019-05-26T05:39:25.711Z,17.12
2019-05-26T05:41:54.333Z,16.60
2019-05-26T05:44:23.028Z,16.92
2019-05-26T05:46:51.697Z,17.54
2019-05-26T05:49:20.365Z,17.34
2019-05-26T05:51:49.067Z,18.01
2019-05-26T05:54:18.660Z,18.20
2019-05-26T05:56:47.345Z,17.44
2019-05-26T05:59:15.961Z,17.68
2019-05-26T06:01:44.685Z,18.58
2019-05-26T06:04:13.301Z,18.42
2019-05-26T06:06:41.993Z,17.86
2019-05-26T06:09:10.652Z,17.93
2019-05-26T06:11:39.341Z,18.19
2019-05-26T06:14:08.048Z,18.42
2019-05-26T06:16:36.766Z,18.10
2019-05-26T06:19:05.378Z,18.87
2019-05-26T06:21:33.996Z,18.65
2019-05-26T06:24:02.654Z,18.88
2019-05-26T06:26:31.274Z,19.24
2019-05-26T06:28:59.897Z,19.07
2019-05-26T06:31:28.618Z,18.90
2019-05-26T06:33:57.244Z,18.90
2019-05-26T06:36:25.929Z,18.98
2019-05-26T06:38:54.662Z,19.56
2019-05-26T06:41:32.918Z,19.66
2019-05-26T06:43:53.782Z,19.51
2019-05-26T06:46:22.524Z,19.50
2019-05-26T06:48:51.218Z,19.09
2019-05-26T06:51:19.912Z,18.60
2019-05-26T06:53:48.566Z,19.80
2019-05-26T06:56:18.866Z,19.55
2019-05-26T06:58:47.560Z,19.05
2019-05-26T07:01:16.219Z,19.21
2019-05-26T07:03:44.833Z,19.24
2019-05-26T07:06:13.447Z,19.48
2019-05-26T07:08:42.107Z,19.70
2019-05-26T07:11:10.798Z,19.01
2019-05-26T07:13:39.416Z,19.16
2019-05-26T07:16:08.198Z,19.85
2019-05-26T07:18:36.796Z,20.47
2019-05-26T07:21:05.415Z,20.70
2019-05-26T07:23:34.140Z,19.86
2019-05-26T07:26:02.825Z,20.54
2019-05-26T07:28:31.505Z,20.84
2019-05-26T07:31:00.224Z,21.05
2019-05-26T07:33:28.925Z,20.68
2019-05-26T07:35:57.606Z,19.94
2019-05-26T07:38:26.263Z,19.55
2019-05-26T07:40:54.876Z,19.80
2019-05-26T07:43:23.565Z,20.62
2019-05-26T07:45:52.231Z,20.82
2019-05-26T07:48:20.847Z,20.42
2019-05-26T07:50:49.470Z,20.68
2019-05-26T07:53:18.185Z,21.18
2019-05-26T07:55:46.878Z,20.95
2019-05-26T07:58:16.329Z,21.33
2019-05-26T08:00:45.058Z,21.36
2019-05-26T08:03:13.744Z,21.51
2019-05-26T08:05:42.558Z,21.07
2019-05-26T08:08:13.170Z,21.36
2019-05-26T08:10:41.626Z,21.63
2019-05-26T08:13:11.499Z,21.80
2019-05-26T08:15:40.220Z,22.07
2019-05-26T08:18:08.841Z,21.46
2019-05-26T08:20:37.528Z,21.93
2019-05-26T08:23:06.311Z,21.53
2019-05-26T08:25:34.947Z,21.95
2019-05-26T08:28:03.638Z,22.00
2019-05-26T08:30:32.358Z,22.09
2019-05-26T08:33:01.097Z,22.42
2019-05-26T08:35:29.755Z,22.46
2019-05-26T08:37:58.433Z,22.13
2019-05-26T08:40:27.126Z,21.43
2019-05-26T08:42:55.739Z,21.80
2019-05-26T08:45:24.490Z,21.69
2019-05-26T08:47:53.398Z,22.31
2019-05-26T08:50:22.309Z,21.51
2019-05-26T08:52:51.029Z,22.10
2019-05-26T08:55:20.028Z,22.11
2019-05-26T08:57:48.721Z,22.22
2019-05-26T09:00:18.920Z,23.08
2019-05-26T09:02:47.533Z,22.91
2019-05-26T09:05:16.449Z,22.85
2019-05-26T09:07:45.166Z,22.56
2019-05-26T09:10:13.989Z,22.70
2019-05-26T09:12:42.678Z,22.50
2019-05-26T09:15:11.608Z,22.67
2019-05-26T09:17:40.224Z,23.34
2019-05-26T09:20:11.379Z,23.52
2019-05-26T09:22:40.579Z,23.78
2019-05-26T09:25:09.769Z,23.64
2019-05-26T09:27:38.449Z,23.59
2019-05-26T09:30:08.571Z,22.67
2019-05-26T09:32:37.455Z,22.29
2019-05-26T09:35:07.539Z,22.86
2019-05-26T09:37:36.285Z,23.28
2019-05-26T09:40:09.640Z,23.70
2019-05-26T09:42:38.317Z,23.90
2019-05-26T09:45:08.551Z,23.48
2019-05-26T09:47:37.240Z,23.45
2019-05-26T09:50:07.032Z,23.65
2019-05-26T09:52:35.776Z,24.13
2019-05-26T09:55:08.592Z,24.42
2019-05-26T09:57:37.285Z,23.07
2019-05-26T10:00:07.255Z,22.76
2019-05-26T10:02:36.807Z,23.30
2019-05-26T10:05:06.496Z,23.65
2019-05-26T10:07:35.229Z,24.16
2019-05-26T10:10:06.079Z,24.68
2019-05-26T10:12:34.690Z,24.55
2019-05-26T10:15:05.147Z,24.44
2019-05-26T10:17:33.763Z,24.63
2019-05-26T10:20:02.459Z,23.81
2019-05-26T10:22:31.136Z,23.95
2019-05-26T10:24:59.828Z,24.69
2019-05-26T10:27:28.513Z,25.19
2019-05-26T10:29:57.171Z,25.60
2019-05-26T10:32:25.802Z,24.42
2019-05-26T10:34:54.412Z,24.81
2019-05-26T10:37:23.138Z,24.16
2019-05-26T10:39:51.760Z,24.51
2019-05-26T10:42:20.453Z,24.92
2019-05-26T10:44:49.178Z,24.95
2019-05-26T10:47:17.874Z,24.47
2019-05-26T10:49:46.558Z,24.72
2019-05-26T10:52:15.266Z,24.15
2019-05-26T10:54:43.892Z,23.91
2019-05-26T10:57:12.579Z,24.80
2019-05-26T10:59:41.355Z,24.81
2019-05-26T11:02:09.988Z,25.22
2019-05-26T11:04:39.458Z,25.03
2019-05-26T11:07:08.196Z,25.10
2019-05-26T11:09:36.824Z,25.12
2019-05-26T11:12:05.610Z,25.41
2019-05-26T11:14:34.337Z,24.86
2019-05-26T11:17:03.022Z,25.15
2019-05-26T11:19:31.713Z,24.02
2019-05-26T11:22:00.371Z,24.84
2019-05-26T11:24:29.059Z,24.77
2019-05-26T11:27:08.256Z,25.22
2019-05-26T11:29:28.229Z,25.42
2019-05-26T11:31:56.864Z,25.50
2019-05-26T11:34:25.993Z,25.42
2019-05-26T11:36:54.650Z,25.53
2019-05-26T11:39:23.337Z,24.47
2019-05-26T11:41:54.980Z,24.99
2019-05-26T11:44:22.393Z,24.80
2019-05-26T11:46:51.080Z,25.29
2019-05-26T11:49:19.763Z,25.29
2019-05-26T11:51:48.490Z,25.47
2019-05-26T11:54:17.108Z,25.35
2019-05-26T11:56:45.798Z,25.39
2019-05-26T11:59:14.447Z,25.69
2019-05-26T12:01:43.156Z,25.23
2019-05-26T12:04:11.852Z,25.57
2019-05-26T12:06:41.436Z,26.06
2019-05-26T12:09:10.155Z,26.70
2019-05-26T12:11:38.773Z,25.98
2019-05-26T12:14:07.493Z,25.52
2019-05-26T12:16:36.193Z,25.92
2019-05-26T12:19:04.981Z,25.40
2019-05-26T12:21:33.639Z,25.90
2019-05-26T12:24:02.321Z,25.88
2019-05-26T12:26:30.943Z,25.72
2019-05-26T12:28:59.657Z,25.97
2019-05-26T12:31:28.343Z,25.59
2019-05-26T12:33:57.037Z,26.29
2019-05-26T12:36:25.758Z,26.77
2019-05-26T12:38:54.378Z,26.01
2019-05-26T12:41:23.096Z,26.35
2019-05-26T12:43:51.813Z,26.47
2019-05-26T12:46:20.496Z,26.58
2019-05-26T12:48:49.180Z,26.15
2019-05-26T12:51:17.933Z,25.41
2019-05-26T12:53:46.625Z,26.47
2019-05-26T12:56:15.252Z,26.38
2019-05-26T12:58:43.974Z,25.96
2019-05-26T13:01:12.593Z,25.42
2019-05-26T13:03:41.284Z,26.02
2019-05-26T13:06:10.010Z,26.46
2019-05-26T13:08:39.555Z,27.00
2019-05-26T13:11:08.178Z,26.31
2019-05-26T13:13:36.822Z,26.07
2019-05-26T13:16:05.617Z,26.16
2019-05-26T13:18:34.241Z,26.43
2019-05-26T13:21:02.960Z,26.66
2019-05-26T13:23:31.652Z,27.28
2019-05-26T13:26:00.347Z,26.84
2019-05-26T13:28:28.999Z,25.74
2019-05-26T13:30:58.589Z,26.08
2019-05-26T13:33:27.283Z,25.33
2019-05-26T13:35:56.007Z,25.20
2019-05-26T13:38:24.691Z,26.11
2019-05-26T13:40:53.382Z,26.90
2019-05-26T13:43:22.045Z,25.75
2019-05-26T13:45:50.741Z,26.07
2019-05-26T13:48:19.438Z,26.42
2019-05-26T13:50:48.156Z,25.63
2019-05-26T13:53:16.773Z,25.59
2019-05-26T13:55:45.394Z,26.48
2019-05-26T13:58:14.190Z,27.04
2019-05-26T14:00:42.747Z,27.21
2019-05-26T14:03:11.435Z,27.04
2019-05-26T14:05:40.172Z,26.85
2019-05-26T14:08:08.865Z,27.27
2019-05-26T14:10:38.892Z,27.41
2019-05-26T14:13:07.714Z,27.14
2019-05-26T14:15:39.008Z,26.86
2019-05-26T14:18:07.440Z,26.78
2019-05-26T14:20:41.061Z,27.12
2019-05-26T14:23:10.463Z,27.50
2019-05-26T14:25:39.552Z,26.86
2019-05-26T14:28:08.777Z,27.05
2019-05-26T14:30:37.575Z,26.45
2019-05-26T14:33:06.358Z,27.02
2019-05-26T14:35:35.083Z,27.52
2019-05-26T14:38:03.793Z,26.49
2019-05-26T14:40:32.494Z,27.21
2019-05-26T14:43:01.295Z,26.89
2019-05-26T14:45:30.038Z,26.98
2019-05-26T14:47:58.746Z,27.32
2019-05-26T14:50:27.407Z,27.78
2019-05-26T14:52:56.136Z,27.38
2019-05-26T14:55:24.746Z,27.70
2019-05-26T14:57:53.481Z,28.09
2019-05-26T15:00:22.694Z,27.21
2019-05-26T15:02:51.387Z,27.60
2019-05-26T15:05:20.636Z,26.39
2019-05-26T15:07:49.318Z,27.14
2019-05-26T15:10:18.303Z,27.39
2019-05-26T15:12:47.879Z,27.65
2019-05-26T15:15:17.098Z,26.50
2019-05-26T15:17:45.878Z,27.19
2019-05-26T15:20:14.983Z,27.61
2019-05-26T15:22:43.678Z,27.19
2019-05-26T15:25:13.168Z,26.29
2019-05-26T15:27:41.904Z,26.23
2019-05-26T15:30:12.190Z,26.46
2019-05-26T15:32:40.926Z,26.44
2019-05-26T15:35:09.997Z,26.70
2019-05-26T15:37:38.691Z,26.66
2019-05-26T15:40:08.711Z,26.99
2019-05-26T15:42:37.440Z,27.04
2019-05-26T15:45:07.737Z,26.88
2019-05-26T15:47:36.539Z,26.70
2019-05-26T15:50:11.445Z,26.83
2019-05-26T15:52:39.790Z,26.77
2019-05-26T15:55:08.686Z,26.84
2019-05-26T15:57:37.403Z,26.39
2019-05-26T16:00:08.657Z,26.39
2019-05-26T16:02:37.332Z,26.37
2019-05-26T16:05:07.260Z,26.47
2019-05-26T16:07:35.890Z,26.86
2019-05-26T16:10:09.092Z,26.81
2019-05-26T16:12:40.553Z,26.98
2019-05-26T16:15:09.671Z,26.73
2019-05-26T16:17:39.091Z,26.88
2019-05-26T16:20:08.906Z,26.53
2019-05-26T16:22:37.622Z,26.45
2019-05-26T16:25:07.321Z,26.50
2019-05-26T16:27:36.045Z,25.60
2019-05-26T16:30:07.782Z,26.18
2019-05-26T16:32:36.480Z,26.16
2019-05-26T16:35:05.923Z,26.19
2019-05-26T16:37:34.627Z,26.33
2019-05-26T16:40:03.823Z,26.13
2019-05-26T16:42:32.484Z,26.15
2019-05-26T16:45:01.177Z,26.18
2019-05-26T16:47:29.802Z,26.55
2019-05-26T16:49:58.535Z,26.55
2019-05-26T16:52:27.264Z,26.48
2019-05-26T16:54:55.950Z,26.29
2019-05-26T16:57:24.684Z,26.27
2019-05-26T16:59:53.388Z,26.30
2019-05-26T17:02:22.012Z,26.16
2019-05-26T17:04:50.794Z,26.13
2019-05-26T17:07:19.530Z,25.85
2019-05-26T17:09:48.229Z,25.80
2019-05-26T17:12:17.185Z,26.03
2019-05-26T17:14:45.813Z,25.84
2019-05-26T17:17:15.505Z,25.36
2019-05-26T17:19:44.396Z,25.59
2019-05-26T17:22:13.124Z,25.58
2019-05-26T17:24:41.704Z,25.38
2019-05-26T17:27:10.448Z,25.22
2019-05-26T17:29:39.146Z,25.16
2019-05-26T17:32:07.761Z,24.61
2019-05-26T17:34:36.493Z,24.76
2019-05-26T17:37:05.208Z,24.88
2019-05-26T17:39:33.895Z,24.71
2019-05-26T17:42:02.632Z,23.52
2019-05-26T17:44:31.325Z,23.76
2019-05-26T17:47:00.033Z,23.47
2019-05-26T17:49:28.750Z,23.63
2019-05-26T17:51:57.377Z,23.54
2019-05-26T18:19:32.668Z,23.92
2019-05-26T18:22:01.287Z,23.06
2019-05-26T18:24:29.987Z,23.16
2019-05-26T18:26:58.728Z,23.52
2019-05-26T18:29:27.426Z,22.90
2019-05-26T18:31:56.168Z,23.55
2019-05-26T18:34:24.934Z,23.64
2019-05-26T18:36:53.643Z,24.07
2019-05-26T18:39:22.337Z,23.27
2019-05-26T18:41:51.095Z,23.40
2019-05-26T18:44:19.773Z,23.52
2019-05-26T18:46:48.480Z,23.90
2019-05-26T18:49:17.226Z,24.06
2019-05-26T18:51:45.843Z,23.23
2019-05-26T18:54:14.544Z,23.53
2019-05-26T18:56:43.298Z,23.48
2019-05-26T18:59:12.003Z,23.45
2019-05-26T19:01:40.695Z,22.83
2019-05-26T19:04:09.443Z,23.46
2019-05-26T19:06:38.149Z,23.80
2019-05-26T19:09:10.288Z,23.39
2019-05-26T19:11:39.013Z,23.84
2019-05-26T19:14:07.707Z,23.92
2019-05-26T19:16:36.408Z,23.95
2019-05-26T19:19:05.345Z,23.94
2019-05-26T19:21:34.051Z,24.05
2019-05-26T19:24:02.740Z,23.99
2019-05-26T19:26:31.473Z,23.97
2019-05-26T19:29:00.182Z,23.88
2019-05-26T19:31:28.875Z,23.94
2019-05-26T19:33:57.592Z,23.77
2019-05-26T19:36:26.281Z,23.88
2019-05-26T19:38:54.899Z,23.78
2019-05-26T19:41:24.495Z,23.88
2019-05-26T19:43:53.188Z,23.94
2019-05-26T19:46:21.878Z,23.94
2019-05-26T19:48:50.607Z,24.04
2019-05-26T19:51:19.225Z,23.46
2019-05-26T19:53:47.843Z,23.79
2019-05-26T19:56:16.564Z,23.58
2019-05-26T19:58:45.254Z,23.43
2019-05-26T20:01:13.952Z,23.37
2019-05-26T20:03:42.671Z,23.86
2019-05-26T20:06:11.371Z,23.55
2019-05-26T20:08:40.065Z,23.33
2019-05-26T20:11:08.714Z,23.53
2019-05-26T20:13:37.346Z,23.34
2019-05-26T20:16:06.019Z,23.08
2019-05-26T20:18:34.743Z,23.55
2019-05-26T20:21:03.608Z,23.51
2019-05-26T20:23:33.150Z,23.63
2019-05-26T20:26:01.870Z,23.60
2019-05-26T20:28:30.634Z,23.07
2019-05-26T20:30:59.333Z,23.24
2019-05-26T20:33:28.054Z,23.09
2019-05-26T20:35:56.742Z,23.09
2019-05-26T20:38:25.437Z,23.13
2019-05-26T20:40:54.152Z,23.19
2019-05-26T20:43:25.029Z,23.03
2019-05-26T20:45:53.239Z,23.09
2019-05-26T20:48:21.974Z,23.07
2019-05-26T20:50:52.024Z,22.97
2019-05-26T20:53:20.721Z,23.12
2019-05-26T20:55:49.434Z,22.82
2019-05-26T20:58:18.128Z,22.88
2019-05-26T21:00:46.748Z,22.93
2019-05-26T21:03:15.483Z,22.98
2019-05-26T21:05:44.167Z,23.08
2019-05-26T21:08:12.791Z,23.29
2019-05-26T21:10:41.519Z,22.92
2019-05-26T21:13:10.215Z,22.69
2019-05-26T21:15:38.838Z,22.85
2019-05-26T21:18:07.571Z,22.91
2019-05-26T21:20:36.291Z,22.72
2019-05-26T21:23:04.990Z,22.83
2019-05-26T21:25:34.558Z,22.80
2019-05-26T21:28:03.248Z,23.02
2019-05-26T21:30:31.925Z,23.08
2019-05-26T21:33:00.652Z,23.09
2019-05-26T21:35:29.432Z,22.98
2019-05-26T21:37:58.130Z,22.96
2019-05-26T21:40:26.855Z,23.05
2019-05-26T21:42:55.573Z,22.94
2019-05-26T21:45:24.184Z,22.89
2019-05-26T21:47:52.911Z,22.89
2019-05-26T21:50:21.630Z,22.85
2019-05-26T21:52:50.253Z,22.82
2019-05-26T21:55:18.906Z,22.82
2019-05-26T21:57:47.603Z,22.64
2019-05-26T22:00:23.909Z,22.65
2019-05-26T22:02:52.618Z,22.60
2019-05-26T22:05:21.297Z,22.54
2019-05-26T22:07:50.039Z,22.55
2019-05-26T22:10:18.740Z,22.61
2019-05-26T22:12:47.500Z,22.49
2019-05-26T22:15:16.553Z,22.53
2019-05-26T22:17:45.191Z,22.55
2019-05-26T22:20:13.991Z,22.63
2019-05-26T22:22:42.736Z,22.61
2019-05-26T22:25:11.535Z,22.60
2019-05-26T22:27:40.995Z,22.60
2019-05-26T22:30:10.387Z,22.48
2019-05-26T22:32:39.015Z,22.56
2019-05-26T22:35:09.116Z,22.51
2019-05-26T22:37:37.752Z,22.46
2019-05-26T22:40:06.974Z,22.46
2019-05-26T22:42:35.605Z,22.43
2019-05-26T22:45:05.891Z,22.49
2019-05-26T22:47:34.580Z,22.21
2019-05-26T22:50:04.479Z,22.27
2019-05-26T22:52:33.138Z,22.23
2019-05-26T22:55:01.831Z,22.19
2019-05-26T22:57:30.523Z,21.67
2019-05-26T22:59:59.237Z,21.88
2019-05-26T23:02:27.937Z,21.79
2019-05-26T23:04:56.623Z,21.54
2019-05-26T23:07:25.350Z,21.76
2019-05-26T23:09:54.040Z,21.84
2019-05-26T23:12:22.818Z,21.83
2019-05-26T23:14:51.540Z,21.79
2019-05-26T23:17:20.163Z,21.59
2019-05-26T23:19:48.864Z,21.65
2019-05-26T23:22:17.520Z,21.31
2019-05-26T23:24:46.204Z,21.34
2019-05-26T23:27:14.817Z,21.43
2019-05-26T23:29:43.552Z,21.50
2019-05-26T23:32:12.162Z,21.56
2019-05-26T23:34:40.776Z,21.52
2019-05-26T23:37:09.514Z,21.59
2019-05-26T23:39:38.204Z,21.50
2019-05-26T23:42:06.902Z,21.62
2019-05-26T23:44:35.555Z,21.58
2019-05-26T23:47:04.186Z,21.49
2019-05-26T23:49:32.876Z,21.52
2019-05-26T23:52:01.524Z,21.22
2019-05-26T23:54:30.210Z,20.47
2019-05-26T23:56:58.926Z,20.50
2019-05-26T23:59:27.603Z,20.91
